CQX weather

Chatham Municipal Airport
Chatham, Massachusetts, United States

Public forecast

Using degrees Fahrenheit for public forecast. Weather courtesy of forecast.io.

Current aviation weather report (METAR) for Chatham Municipal Airport

Report is more than 6 hours old.

Retrieved 2019/10/17 05:20 UTC (2 days ago):

KCQX 170520Z AUTO 10027G43KT 2SM +RA BR OVC006 16/15 A2909 RMK AO2 PK WND 09044/0505 CIG 005V011 PRESFR P0008 T01560150

Closest aviation forecast (TAF) to Chatham Municipal Airport

Closest forecast is Barnstable Municipal Boardman Polando Field, 13.1 nm (24.3 km) W. Retrieved 2019/10/19 06:40 UTC (4 hours ago):

TAF KHYA 190538Z 1906/2006 31005KT P6SM SKC FM200000 00000KT P6SM SKC